sensor_id;sensor_type;location;lat;lon;timestamp;pressure;altitude;pressure_sealevel;temperature;humidity
73671;BME280;61968;48.178;11.566;2023-03-25T00:01:03;95252.19;;;9.61;38.73
73671;BME280;61968;48.178;11.566;2023-03-25T00:03:34;95240.72;;;9.56;38.51
73671;BME280;61968;48.178;11.566;2023-03-25T00:06:05;95250.81;;;9.07;39.45
73671;BME280;61968;48.178;11.566;2023-03-25T00:08:33;95236.56;;;9.31;39.45
73671;BME280;61968;48.178;11.566;2023-03-25T00:11:01;95235.00;;;9.47;39.37
73671;BME280;61968;48.178;11.566;2023-03-25T00:13:28;95228.25;;;9.39;39.77
73671;BME280;61968;48.178;11.566;2023-03-25T00:15:56;95228.00;;;9.53;40.23
73671;BME280;61968;48.178;11.566;2023-03-25T00:18:24;95219.22;;;9.64;38.29
73671;BME280;61968;48.178;11.566;2023-03-25T00:20:53;95224.28;;;9.65;38.87
73671;BME280;61968;48.178;11.566;2023-03-25T00:23:21;95223.78;;;9.68;38.28
73671;BME280;61968;48.178;11.566;2023-03-25T00:25:49;95228.00;;;9.81;38.36
73671;BME280;61968;48.178;11.566;2023-03-25T00:28:16;95226.16;;;9.82;37.83
73671;BME280;61968;48.178;11.566;2023-03-25T00:30:44;95230.28;;;10.06;39.06
73671;BME280;61968;48.178;11.566;2023-03-25T00:33:11;95218.50;;;9.80;37.86
73671;BME280;61968;48.178;11.566;2023-03-25T00:35:37;95217.00;;;10.18;38.31
73671;BME280;61968;48.178;11.566;2023-03-25T00:38:09;95222.69;;;10.10;36.93
73671;BME280;61968;48.178;11.566;2023-03-25T00:40:35;95220.44;;;10.02;38.42
73671;BME280;61968;48.178;11.566;2023-03-25T00:43:04;95215.63;;;9.99;37.65
73671;BME280;61968;48.178;11.566;2023-03-25T00:45:31;95204.75;;;9.66;38.28
73671;BME280;61968;48.178;11.566;2023-03-25T00:47:58;95219.50;;;9.51;37.62
73671;BME280;61968;48.178;11.566;2023-03-25T00:50:25;95200.63;;;9.01;38.50
73671;BME280;61968;48.178;11.566;2023-03-25T00:52:51;95207.19;;;8.75;38.84
73671;BME280;61968;48.178;11.566;2023-03-25T00:55:18;95212.69;;;8.50;39.65
73671;BME280;61968;48.178;11.566;2023-03-25T00:57:45;95197.69;;;8.63;38.71
73671;BME280;61968;48.178;11.566;2023-03-25T01:00:15;95201.78;;;8.82;40.12
73671;BME280;61968;48.178;11.566;2023-03-25T01:02:42;95201.34;;;8.85;38.28
73671;BME280;61968;48.178;11.566;2023-03-25T01:05:10;95200.66;;;8.54;38.93
73671;BME280;61968;48.178;11.566;2023-03-25T01:07:38;95198.69;;;8.97;38.47
73671;BME280;61968;48.178;11.566;2023-03-25T01:10:06;95189.31;;;8.89;38.00
73671;BME280;61968;48.178;11.566;2023-03-25T01:12:33;95189.69;;;8.34;39.39
73671;BME280;61968;48.178;11.566;2023-03-25T01:15:00;95196.75;;;8.33;39.59
73671;BME280;61968;48.178;11.566;2023-03-25T01:17:27;95200.75;;;8.01;40.40
73671;BME280;61968;48.178;11.566;2023-03-25T01:19:54;95209.81;;;8.64;38.93
73671;BME280;61968;48.178;11.566;2023-03-25T01:22:20;95203.28;;;8.90;39.10
73671;BME280;61968;48.178;11.566;2023-03-25T01:24:47;95196.31;;;8.84;40.15
73671;BME280;61968;48.178;11.566;2023-03-25T01:27:13;95209.72;;;8.82;38.82
73671;BME280;61968;48.178;11.566;2023-03-25T01:29:40;95207.53;;;8.55;38.88
73671;BME280;61968;48.178;11.566;2023-03-25T01:32:06;95204.28;;;9.00;38.25
73671;BME280;61968;48.178;11.566;2023-03-25T01:34:34;95202.56;;;9.06;38.58
73671;BME280;61968;48.178;11.566;2023-03-25T01:37:02;95207.16;;;8.05;39.83
73671;BME280;61968;48.178;11.566;2023-03-25T01:39:29;95203.75;;;8.75;38.82
73671;BME280;61968;48.178;11.566;2023-03-25T01:41:55;95191.66;;;9.02;38.10
73671;BME280;61968;48.178;11.566;2023-03-25T01:47:26;95197.28;;;9.46;38.86
73671;BME280;61968;48.178;11.566;2023-03-25T01:49:54;95195.38;;;9.59;36.96
73671;BME280;61968;48.178;11.566;2023-03-25T01:52:23;95193.06;;;8.93;37.97
73671;BME280;61968;48.178;11.566;2023-03-25T01:54:51;95209.72;;;8.82;39.02
73671;BME280;61968;48.178;11.566;2023-03-25T01:57:20;95205.69;;;8.91;39.01
73671;BME280;61968;48.178;11.566;2023-03-25T01:59:49;95187.66;;;9.40;37.59
73671;BME280;61968;48.178;11.566;2023-03-25T02:02:18;95195.84;;;8.75;39.02
73671;BME280;61968;48.178;11.566;2023-03-25T02:04:50;95198.59;;;8.56;38.64
73671;BME280;61968;48.178;11.566;2023-03-25T02:07:28;95194.78;;;8.99;39.09
73671;BME280;61968;48.178;11.566;2023-03-25T02:09:58;95187.19;;;9.43;36.82
73671;BME280;61968;48.178;11.566;2023-03-25T02:12:26;95172.38;;;9.14;37.06
73671;BME280;61968;48.178;11.566;2023-03-25T02:14:53;95191.50;;;8.69;38.29
73671;BME280;61968;48.178;11.566;2023-03-25T02:17:26;95180.72;;;8.82;39.56
73671;BME280;61968;48.178;11.566;2023-03-25T02:20:18;95165.25;;;8.86;38.42
73671;BME280;61968;48.178;11.566;2023-03-25T02:23:11;95155.41;;;8.69;38.62
73671;BME280;61968;48.178;11.566;2023-03-25T02:26:09;95169.97;;;8.48;38.78
73671;BME280;61968;48.178;11.566;2023-03-25T02:28:48;95152.28;;;8.84;39.26
73671;BME280;61968;48.178;11.566;2023-03-25T02:31:45;95160.81;;;9.03;37.82
73671;BME280;61968;48.178;11.566;2023-03-25T02:34:26;95171.44;;;9.20;38.24
73671;BME280;61968;48.178;11.566;2023-03-25T02:37:21;95174.91;;;9.09;37.36
73671;BME280;61968;48.178;11.566;2023-03-25T02:39:59;95178.72;;;9.13;38.12
73671;BME280;61968;48.178;11.566;2023-03-25T02:42:33;95181.63;;;8.05;38.22
73671;BME280;61968;48.178;11.566;2023-03-25T02:45:06;95188.28;;;8.55;37.25
73671;BME280;61968;48.178;11.566;2023-03-25T02:47:36;95174.97;;;8.85;36.83
73671;BME280;61968;48.178;11.566;2023-03-25T02:50:07;95196.03;;;8.97;36.95
73671;BME280;61968;48.178;11.566;2023-03-25T02:52:37;95185.75;;;8.48;37.38
73671;BME280;61968;48.178;11.566;2023-03-25T02:55:09;95191.28;;;8.70;38.56
73671;BME280;61968;48.178;11.566;2023-03-25T02:57:38;95191.16;;;8.53;37.38
73671;BME280;61968;48.178;11.566;2023-03-25T03:00:08;95193.00;;;8.29;37.53
73671;BME280;61968;48.178;11.566;2023-03-25T03:02:41;95179.91;;;8.58;37.23
73671;BME280;61968;48.178;11.566;2023-03-25T03:05:21;95185.19;;;8.70;37.48
73671;BME280;61968;48.178;11.566;2023-03-25T03:07:53;95172.38;;;8.50;38.87
73671;BME280;61968;48.178;11.566;2023-03-25T03:10:24;95181.53;;;8.59;37.25
73671;BME280;61968;48.178;11.566;2023-03-25T03:13:01;95170.63;;;8.79;37.59
73671;BME280;61968;48.178;11.566;2023-03-25T03:15:36;95155.66;;;8.44;37.14
73671;BME280;61968;48.178;11.566;2023-03-25T03:18:13;95166.78;;;8.46;38.50
73671;BME280;61968;48.178;11.566;2023-03-25T03:20:45;95158.97;;;8.75;37.79
73671;BME280;61968;48.178;11.566;2023-03-25T03:23:23;95159.31;;;9.19;35.78
73671;BME280;61968;48.178;11.566;2023-03-25T03:25:55;95162.94;;;8.66;36.42
73671;BME280;61968;48.178;11.566;2023-03-25T03:28:29;95162.28;;;8.11;37.78
73671;BME280;61968;48.178;11.566;2023-03-25T03:31:01;95176.25;;;8.35;38.01
73671;BME280;61968;48.178;11.566;2023-03-25T03:33:33;95167.56;;;8.47;37.87
73671;BME280;61968;48.178;11.566;2023-03-25T03:36:06;95166.97;;;8.80;36.38
73671;BME280;61968;48.178;11.566;2023-03-25T03:38:36;95171.22;;;8.81;36.48
73671;BME280;61968;48.178;11.566;2023-03-25T03:41:08;95175.22;;;8.72;36.60
73671;BME280;61968;48.178;11.566;2023-03-25T03:43:39;95173.97;;;7.92;38.71
73671;BME280;61968;48.178;11.566;2023-03-25T03:46:11;95190.75;;;7.91;37.85
73671;BME280;61968;48.178;11.566;2023-03-25T03:48:41;95191.28;;;7.70;38.87
73671;BME280;61968;48.178;11.566;2023-03-25T03:51:12;95184.63;;;7.37;39.87
73671;BME280;61968;48.178;11.566;2023-03-25T03:53:46;95180.75;;;7.70;39.88
73671;BME280;61968;48.178;11.566;2023-03-25T03:56:20;95181.75;;;7.57;38.97
73671;BME280;61968;48.178;11.566;2023-03-25T03:58:50;95196.41;;;8.06;38.14
73671;BME280;61968;48.178;11.566;2023-03-25T04:01:25;95194.63;;;7.16;40.49
73671;BME280;61968;48.178;11.566;2023-03-25T04:03:57;95205.34;;;7.63;39.12
73671;BME280;61968;48.178;11.566;2023-03-25T04:06:30;95193.91;;;7.70;39.40
73671;BME280;61968;48.178;11.566;2023-03-25T04:09:02;95198.91;;;7.29;39.85
73671;BME280;61968;48.178;11.566;2023-03-25T04:11:37;95194.19;;;7.19;39.86
73671;BME280;61968;48.178;11.566;2023-03-25T04:14:06;95200.72;;;7.89;38.73
73671;BME280;61968;48.178;11.566;2023-03-25T04:16:34;95194.13;;;8.10;39.21
73671;BME280;61968;48.178;11.566;2023-03-25T04:19:02;95188.03;;;8.09;38.13
73671;BME280;61968;48.178;11.566;2023-03-25T04:21:29;95204.44;;;7.39;39.67
73671;BME280;61968;48.178;11.566;2023-03-25T04:23:56;95208.88;;;7.99;39.12
73671;BME280;61968;48.178;11.566;2023-03-25T04:26:26;95201.28;;;7.91;38.92
73671;BME280;61968;48.178;11.566;2023-03-25T04:31:23;95199.97;;;7.58;38.21
73671;BME280;61968;48.178;11.566;2023-03-25T04:33:50;95210.84;;;7.13;39.00
73671;BME280;61968;48.178;11.566;2023-03-25T04:36:17;95208.00;;;7.45;39.11
73671;BME280;61968;48.178;11.566;2023-03-25T04:38:44;95206.84;;;7.41;39.74
73671;BME280;61968;48.178;11.566;2023-03-25T04:41:11;95210.56;;;7.52;41.25
73671;BME280;61968;48.178;11.566;2023-03-25T04:43:39;95216.25;;;7.79;40.82
73671;BME280;61968;48.178;11.566;2023-03-25T04:46:09;95222.97;;;7.63;38.58
73671;BME280;61968;48.178;11.566;2023-03-25T04:48:38;95214.53;;;7.24;38.64
73671;BME280;61968;48.178;11.566;2023-03-25T04:51:09;95210.34;;;7.53;40.32
73671;BME280;61968;48.178;11.566;2023-03-25T04:53:36;95202.06;;;7.68;38.81
73671;BME280;61968;48.178;11.566;2023-03-25T04:56:04;95206.88;;;7.71;37.54
73671;BME280;61968;48.178;11.566;2023-03-25T04:58:30;95208.97;;;7.93;37.48
73671;BME280;61968;48.178;11.566;2023-03-25T05:00:57;95212.09;;;8.01;37.43
73671;BME280;61968;48.178;11.566;2023-03-25T05:03:31;95198.47;;;8.04;38.03
73671;BME280;61968;48.178;11.566;2023-03-25T05:05:58;95200.16;;;7.87;36.91
73671;BME280;61968;48.178;11.566;2023-03-25T05:08:25;95184.03;;;7.95;37.41
73671;BME280;61968;48.178;11.566;2023-03-25T05:10:51;95199.38;;;7.98;38.60
73671;BME280;61968;48.178;11.566;2023-03-25T05:13:18;95196.22;;;8.43;36.57
73671;BME280;61968;48.178;11.566;2023-03-25T05:15:46;95198.13;;;8.36;36.32
73671;BME280;61968;48.178;11.566;2023-03-25T05:18:14;95197.00;;;8.20;36.46
73671;BME280;61968;48.178;11.566;2023-03-25T05:20:44;95199.50;;;8.15;36.40
73671;BME280;61968;48.178;11.566;2023-03-25T05:23:15;95210.13;;;7.97;37.00
73671;BME280;61968;48.178;11.566;2023-03-25T05:25:42;95210.13;;;7.97;37.42
73671;BME280;61968;48.178;11.566;2023-03-25T05:28:09;95213.81;;;8.31;36.24
73671;BME280;61968;48.178;11.566;2023-03-25T05:30:38;95214.03;;;8.18;36.65
73671;BME280;61968;48.178;11.566;2023-03-25T05:33:06;95219.06;;;7.96;37.43
73671;BME280;61968;48.178;11.566;2023-03-25T05:35:34;95232.13;;;8.02;36.81
73671;BME280;61968;48.178;11.566;2023-03-25T05:38:02;95230.34;;;7.84;37.29
73671;BME280;61968;48.178;11.566;2023-03-25T05:40:29;95228.91;;;8.12;37.87
73671;BME280;61968;48.178;11.566;2023-03-25T05:42:55;95234.53;;;8.27;36.59
73671;BME280;61968;48.178;11.566;2023-03-25T05:45:22;95236.75;;;8.54;36.92
73671;BME280;61968;48.178;11.566;2023-03-25T05:47:48;95236.63;;;8.25;36.55
73671;BME280;61968;48.178;11.566;2023-03-25T05:50:15;95245.44;;;8.43;36.58
73671;BME280;61968;48.178;11.566;2023-03-25T05:52:41;95237.88;;;8.58;36.05
73671;BME280;61968;48.178;11.566;2023-03-25T05:55:15;95231.13;;;8.50;35.67
73671;BME280;61968;48.178;11.566;2023-03-25T05:57:42;95251.25;;;8.21;36.32
73671;BME280;61968;48.178;11.566;2023-03-25T06:00:10;95255.19;;;7.88;37.16
73671;BME280;61968;48.178;11.566;2023-03-25T06:02:38;95251.78;;;7.39;38.45
73671;BME280;61968;48.178;11.566;2023-03-25T06:05:07;95253.44;;;7.71;38.34
73671;BME280;61968;48.178;11.566;2023-03-25T06:07:38;95261.75;;;7.49;38.00
73671;BME280;61968;48.178;11.566;2023-03-25T06:10:07;95264.28;;;7.26;37.93
73671;BME280;61968;48.178;11.566;2023-03-25T06:12:35;95274.50;;;7.52;37.43
73671;BME280;61968;48.178;11.566;2023-03-25T06:15:03;95268.97;;;7.24;38.15
73671;BME280;61968;48.178;11.566;2023-03-25T06:17:30;95289.19;;;7.90;37.11
73671;BME280;61968;48.178;11.566;2023-03-25T06:19:57;95279.75;;;8.01;36.48
73671;BME280;61968;48.178;11.566;2023-03-25T06:22:24;95277.06;;;7.59;36.30
73671;BME280;61968;48.178;11.566;2023-03-25T06:24:51;95289.09;;;7.66;36.26
73671;BME280;61968;48.178;11.566;2023-03-25T06:27:18;95282.75;;;6.82;36.90
73671;BME280;61968;48.178;11.566;2023-03-25T06:29:47;95288.44;;;7.16;36.69
73671;BME280;61968;48.178;11.566;2023-03-25T06:32:14;95287.00;;;6.83;36.87
73671;BME280;61968;48.178;11.566;2023-03-25T06:34:40;95295.31;;;6.80;36.79
73671;BME280;61968;48.178;11.566;2023-03-25T06:37:09;95296.06;;;7.24;35.59
73671;BME280;61968;48.178;11.566;2023-03-25T06:39:35;95291.91;;;7.53;34.88
73671;BME280;61968;48.178;11.566;2023-03-25T06:42:03;95314.53;;;7.73;35.22
73671;BME280;61968;48.178;11.566;2023-03-25T06:44:30;95320.59;;;7.73;36.39
73671;BME280;61968;48.178;11.566;2023-03-25T06:46:58;95312.22;;;7.64;34.44
73671;BME280;61968;48.178;11.566;2023-03-25T06:49:24;95310.16;;;7.48;34.49
73671;BME280;61968;48.178;11.566;2023-03-25T06:51:51;95317.06;;;6.37;36.30
73671;BME280;61968;48.178;11.566;2023-03-25T06:54:17;95312.78;;;6.43;36.43
73671;BME280;61968;48.178;11.566;2023-03-25T06:56:44;95323.03;;;6.51;36.11
73671;BME280;61968;48.178;11.566;2023-03-25T06:59:10;95328.88;;;6.78;35.94
73671;BME280;61968;48.178;11.566;2023-03-25T07:01:37;95322.81;;;6.78;36.09
73671;BME280;61968;48.178;11.566;2023-03-25T07:04:05;95326.88;;;6.73;36.19
73671;BME280;61968;48.178;11.566;2023-03-25T07:06:31;95329.06;;;7.02;35.71
73671;BME280;61968;48.178;11.566;2023-03-25T07:08:58;95326.97;;;7.10;35.78
73671;BME280;61968;48.178;11.566;2023-03-25T07:11:25;95335.13;;;7.02;36.68
73671;BME280;61968;48.178;11.566;2023-03-25T07:13:53;95331.16;;;6.49;37.58
73671;BME280;61968;48.178;11.566;2023-03-25T07:16:21;95341.66;;;6.49;37.80
73671;BME280;61968;48.178;11.566;2023-03-25T07:18:47;95352.97;;;6.50;37.94
73671;BME280;61968;48.178;11.566;2023-03-25T07:21:16;95354.88;;;6.61;38.01
73671;BME280;61968;48.178;11.566;2023-03-25T07:23:43;95352.16;;;6.74;37.89
73671;BME280;61968;48.178;11.566;2023-03-25T07:26:10;95359.59;;;6.78;37.90
73671;BME280;61968;48.178;11.566;2023-03-25T07:28:37;95351.66;;;6.84;38.22
73671;BME280;61968;48.178;11.566;2023-03-25T07:31:06;95349.28;;;7.01;37.52
73671;BME280;61968;48.178;11.566;2023-03-25T07:33:33;95357.00;;;6.96;37.57
73671;BME280;61968;48.178;11.566;2023-03-25T07:35:59;95356.44;;;6.69;38.38
73671;BME280;61968;48.178;11.566;2023-03-25T07:38:27;95361.22;;;6.15;39.46
73671;BME280;61968;48.178;11.566;2023-03-25T07:40:54;95365.47;;;5.78;40.08
73671;BME280;61968;48.178;11.566;2023-03-25T07:43:20;95366.25;;;5.20;41.49
73671;BME280;61968;48.178;11.566;2023-03-25T07:45:47;95358.28;;;5.53;40.84
73671;BME280;61968;48.178;11.566;2023-03-25T07:48:13;95366.38;;;5.97;40.19
73671;BME280;61968;48.178;11.566;2023-03-25T07:50:41;95371.44;;;5.92;39.91
73671;BME280;61968;48.178;11.566;2023-03-25T07:53:09;95388.66;;;6.26;39.77
73671;BME280;61968;48.178;11.566;2023-03-25T07:55:37;95372.50;;;6.22;39.30
73671;BME280;61968;48.178;11.566;2023-03-25T07:58:03;95382.75;;;5.86;40.31
73671;BME280;61968;48.178;11.566;2023-03-25T08:00:30;95376.84;;;6.42;39.24
73671;BME280;61968;48.178;11.566;2023-03-25T08:02:56;95392.19;;;6.70;38.87
73671;BME280;61968;48.178;11.566;2023-03-25T08:05:23;95384.53;;;6.68;38.76
73671;BME280;61968;48.178;11.566;2023-03-25T08:07:50;95380.00;;;6.25;39.41
73671;BME280;61968;48.178;11.566;2023-03-25T08:10:17;95384.53;;;6.37;39.79
73671;BME280;61968;48.178;11.566;2023-03-25T08:12:46;95371.47;;;6.55;39.13
73671;BME280;61968;48.178;11.566;2023-03-25T08:15:12;95386.75;;;6.71;38.51
73671;BME280;61968;48.178;11.566;2023-03-25T08:17:41;95379.97;;;6.57;39.73
73671;BME280;61968;48.178;11.566;2023-03-25T08:20:08;95384.63;;;6.55;39.76
73671;BME280;61968;48.178;11.566;2023-03-25T08:22:35;95387.31;;;6.10;40.62
73671;BME280;61968;48.178;11.566;2023-03-25T08:25:02;95382.91;;;6.42;40.33
73671;BME280;61968;48.178;11.566;2023-03-25T08:27:29;95375.44;;;6.01;40.79
73671;BME280;61968;48.178;11.566;2023-03-25T08:29:56;95375.94;;;6.23;40.45
73671;BME280;61968;48.178;11.566;2023-03-25T08:32:25;95364.47;;;6.49;39.81
73671;BME280;61968;48.178;11.566;2023-03-25T08:34:52;95370.31;;;6.51;39.65
73671;BME280;61968;48.178;11.566;2023-03-25T08:37:18;95366.34;;;6.42;39.75
73671;BME280;61968;48.178;11.566;2023-03-25T08:39:45;95363.34;;;6.63;39.84
73671;BME280;61968;48.178;11.566;2023-03-25T08:42:15;95363.34;;;6.63;39.88
73671;BME280;61968;48.178;11.566;2023-03-25T08:44:42;95363.13;;;6.90;39.46
73671;BME280;61968;48.178;11.566;2023-03-25T08:47:10;95367.06;;;6.81;39.74
73671;BME280;61968;48.178;11.566;2023-03-25T08:49:36;95365.16;;;6.88;39.96
73671;BME280;61968;48.178;11.566;2023-03-25T08:52:03;95366.31;;;7.17;39.30
73671;BME280;61968;48.178;11.566;2023-03-25T08:54:32;95374.38;;;6.97;39.85
73671;BME280;61968;48.178;11.566;2023-03-25T08:56:59;95365.38;;;7.11;39.37
73671;BME280;61968;48.178;11.566;2023-03-25T08:59:25;95356.78;;;7.23;39.20
73671;BME280;61968;48.178;11.566;2023-03-25T09:01:52;95370.63;;;7.11;39.18
73671;BME280;61968;48.178;11.566;2023-03-25T09:04:20;95375.00;;;6.74;39.95
73671;BME280;61968;48.178;11.566;2023-03-25T09:06:46;95364.38;;;6.87;39.20
73671;BME280;61968;48.178;11.566;2023-03-25T09:09:13;95376.06;;;6.91;39.66
73671;BME280;61968;48.178;11.566;2023-03-25T09:11:40;95374.16;;;6.73;39.87
73671;BME280;61968;48.178;11.566;2023-03-25T09:14:07;95371.88;;;6.59;40.57
73671;BME280;61968;48.178;11.566;2023-03-25T09:16:33;95365.13;;;6.69;40.26
73671;BME280;61968;48.178;11.566;2023-03-25T09:19:00;95368.75;;;6.43;40.39
73671;BME280;61968;48.178;11.566;2023-03-25T09:21:28;95352.28;;;6.80;39.80
73671;BME280;61968;48.178;11.566;2023-03-25T09:23:54;95366.25;;;6.80;40.00
73671;BME280;61968;48.178;11.566;2023-03-25T09:26:21;95352.06;;;7.06;39.59
73671;BME280;61968;48.178;11.566;2023-03-25T09:28:47;95350.59;;;6.92;39.64
73671;BME280;61968;48.178;11.566;2023-03-25T09:31:14;95348.88;;;6.54;40.85
73671;BME280;61968;48.178;11.566;2023-03-25T09:33:40;95344.06;;;6.51;40.33
73671;BME280;61968;48.178;11.566;2023-03-25T09:36:06;95340.88;;;6.67;40.07
73671;BME280;61968;48.178;11.566;2023-03-25T09:38:34;95335.06;;;6.02;40.95
73671;BME280;61968;48.178;11.566;2023-03-25T09:41:11;95347.41;;;6.58;40.29
73671;BME280;61968;48.178;11.566;2023-03-25T09:43:50;95332.50;;;6.59;39.90
73671;BME280;61968;48.178;11.566;2023-03-25T09:46:21;95328.38;;;6.88;39.53
73671;BME280;61968;48.178;11.566;2023-03-25T09:48:48;95332.47;;;6.84;39.39
73671;BME280;61968;48.178;11.566;2023-03-25T09:51:20;95334.78;;;7.17;38.94
73671;BME280;61968;48.178;11.566;2023-03-25T09:53:50;95333.91;;;6.80;39.10
73671;BME280;61968;48.178;11.566;2023-03-25T09:56:22;95336.50;;;6.86;39.31
73671;BME280;61968;48.178;11.566;2023-03-25T09:58:51;95324.34;;;7.10;38.59
73671;BME280;61968;48.178;11.566;2023-03-25T10:01:22;95325.03;;;6.99;38.47
73671;BME280;61968;48.178;11.566;2023-03-25T10:03:58;95329.22;;;7.43;38.09
73671;BME280;61968;48.178;11.566;2023-03-25T10:06:28;95322.59;;;7.41;37.59
73671;BME280;61968;48.178;11.566;2023-03-25T10:09:07;95324.09;;;7.12;38.12
73671;BME280;61968;48.178;11.566;2023-03-25T10:11:44;95321.19;;;7.20;38.41
73671;BME280;61968;48.178;11.566;2023-03-25T10:14:18;95315.34;;;7.55;37.78
73671;BME280;61968;48.178;11.566;2023-03-25T10:16:55;95307.03;;;7.88;37.15
73671;BME280;61968;48.178;11.566;2023-03-25T10:19:37;95309.88;;;8.17;36.41
73671;BME280;61968;48.178;11.566;2023-03-25T10:22:08;95305.88;;;7.84;36.92
73671;BME280;61968;48.178;11.566;2023-03-25T10:24:44;95307.06;;;7.70;37.11
73671;BME280;61968;48.178;11.566;2023-03-25T10:27:14;95304.78;;;7.73;37.12
73671;BME280;61968;48.178;11.566;2023-03-25T10:29:48;95290.44;;;7.57;37.16
73671;BME280;61968;48.178;11.566;2023-03-25T10:32:21;95294.91;;;7.87;35.99
73671;BME280;61968;48.178;11.566;2023-03-25T10:34:54;95295.53;;;7.52;36.22
73671;BME280;61968;48.178;11.566;2023-03-25T10:37:24;95293.16;;;6.70;37.33
73671;BME280;61968;48.178;11.566;2023-03-25T10:39:55;95290.81;;;6.37;38.53
73671;BME280;61968;48.178;11.566;2023-03-25T10:42:26;95299.34;;;7.01;37.87
73671;BME280;61968;48.178;11.566;2023-03-25T10:44:54;95284.75;;;7.24;37.38
73671;BME280;61968;48.178;11.566;2023-03-25T10:47:22;95292.47;;;7.37;37.30
73671;BME280;61968;48.178;11.566;2023-03-25T10:49:53;95294.97;;;6.95;38.23
73671;BME280;61968;48.178;11.566;2023-03-25T10:52:20;95298.28;;;6.65;38.92
73671;BME280;61968;48.178;11.566;2023-03-25T10:54:52;95282.69;;;6.89;38.49
73671;BME280;61968;48.178;11.566;2023-03-25T10:57:22;95283.47;;;6.71;38.37
73671;BME280;61968;48.178;11.566;2023-03-25T10:59:57;95287.81;;;7.02;37.37
73671;BME280;61968;48.178;11.566;2023-03-25T11:02:27;95278.00;;;7.46;37.12
73671;BME280;61968;48.178;11.566;2023-03-25T11:04:56;95280.41;;;7.48;36.87
73671;BME280;61968;48.178;11.566;2023-03-25T11:07:26;95268.59;;;7.87;36.11
73671;BME280;61968;48.178;11.566;2023-03-25T11:10:07;95271.00;;;7.58;36.46
73671;BME280;61968;48.178;11.566;2023-03-25T11:12:35;95279.75;;;7.71;35.68
73671;BME280;61968;48.178;11.566;2023-03-25T11:15:04;95259.16;;;7.31;36.84
73671;BME280;61968;48.178;11.566;2023-03-25T11:17:31;95265.59;;;7.35;36.61
73671;BME280;61968;48.178;11.566;2023-03-25T11:20:03;95279.75;;;7.52;37.08
73671;BME280;61968;48.178;11.566;2023-03-25T11:22:36;95274.34;;;8.49;40.17
73671;BME280;61968;48.178;11.566;2023-03-25T11:25:05;95258.00;;;9.35;39.81
73671;BME280;61968;48.178;11.566;2023-03-25T11:27:43;95267.88;;;9.80;37.15
73671;BME280;61968;48.178;11.566;2023-03-25T11:30:15;95237.38;;;9.20;38.13
73671;BME280;61968;48.178;11.566;2023-03-25T11:32:42;95244.94;;;9.28;35.99
73671;BME280;61968;48.178;11.566;2023-03-25T11:35:15;95248.03;;;9.65;34.69
73671;BME280;61968;48.178;11.566;2023-03-25T11:37:44;95227.84;;;9.88;35.48
73671;BME280;61968;48.178;11.566;2023-03-25T11:40:14;95240.44;;;9.98;35.08
73671;BME280;61968;48.178;11.566;2023-03-25T11:42:44;95236.53;;;10.17;33.40
73671;BME280;61968;48.178;11.566;2023-03-25T11:45:19;95239.59;;;8.99;35.01
73671;BME280;61968;48.178;11.566;2023-03-25T11:47:46;95235.19;;;9.57;34.73
73671;BME280;61968;48.178;11.566;2023-03-25T11:50:20;95225.94;;;9.83;33.81
73671;BME280;61968;48.178;11.566;2023-03-25T11:52:48;95230.38;;;9.25;35.10
73671;BME280;61968;48.178;11.566;2023-03-25T11:55:20;95227.19;;;9.12;33.49
73671;BME280;61968;48.178;11.566;2023-03-25T11:57:50;95216.00;;;8.46;35.31
73671;BME280;61968;48.178;11.566;2023-03-25T12:00:31;95222.50;;;7.96;36.45
73671;BME280;61968;48.178;11.566;2023-03-25T12:03:00;95230.75;;;8.11;36.09
73671;BME280;61968;48.178;11.566;2023-03-25T12:05:27;95215.31;;;7.73;36.40
73671;BME280;61968;48.178;11.566;2023-03-25T12:08:02;95212.94;;;7.23;36.90
73671;BME280;61968;48.178;11.566;2023-03-25T12:10:37;95201.63;;;7.95;36.50
73671;BME280;61968;48.178;11.566;2023-03-25T12:13:14;95204.88;;;8.20;36.11
73671;BME280;61968;48.178;11.566;2023-03-25T12:15:50;95196.19;;;8.08;35.93
73671;BME280;61968;48.178;11.566;2023-03-25T12:18:33;95206.38;;;8.28;35.76
73671;BME280;61968;48.178;11.566;2023-03-25T12:21:05;95210.44;;;7.77;36.11
73671;BME280;61968;48.178;11.566;2023-03-25T12:23:41;95194.34;;;8.08;36.19
73671;BME280;61968;48.178;11.566;2023-03-25T12:26:14;95186.91;;;8.29;35.89
73671;BME280;61968;48.178;11.566;2023-03-25T12:29:04;95185.03;;;7.94;36.00
73671;BME280;61968;48.178;11.566;2023-03-25T12:31:44;95189.13;;;7.48;36.62
73671;BME280;61968;48.178;11.566;2023-03-25T12:34:17;95191.13;;;7.23;38.10
73671;BME280;61968;48.178;11.566;2023-03-25T12:36:53;95206.16;;;6.97;38.09
73671;BME280;61968;48.178;11.566;2023-03-25T12:39:33;95205.72;;;7.00;38.70
73671;BME280;61968;48.178;11.566;2023-03-25T12:42:10;95205.72;;;7.00;37.79
73671;BME280;61968;48.178;11.566;2023-03-25T12:44:50;95199.81;;;7.83;37.32
73671;BME280;61968;48.178;11.566;2023-03-25T12:47:22;95205.44;;;7.57;37.14
73671;BME280;61968;48.178;11.566;2023-03-25T12:50:08;95211.16;;;7.54;37.56
73671;BME280;61968;48.178;11.566;2023-03-25T12:52:47;95206.22;;;7.87;37.21
73671;BME280;61968;48.178;11.566;2023-03-25T12:55:38;95190.75;;;7.79;37.82
73671;BME280;61968;48.178;11.566;2023-03-25T12:58:27;95200.94;;;7.27;39.50
73671;BME280;61968;48.178;11.566;2023-03-25T13:01:04;95200.53;;;7.60;36.96
73671;BME280;61968;48.178;11.566;2023-03-25T13:03:54;95177.88;;;7.59;37.04
73671;BME280;61968;48.178;11.566;2023-03-25T13:06:28;95196.69;;;7.75;36.48
73671;BME280;61968;48.178;11.566;2023-03-25T13:09:02;95191.88;;;7.72;37.00
73671;BME280;61968;48.178;11.566;2023-03-25T13:11:35;95207.50;;;8.08;36.30
73671;BME280;61968;48.178;11.566;2023-03-25T13:14:06;95186.13;;;8.28;35.90
73671;BME280;61968;48.178;11.566;2023-03-25T13:16:36;95188.63;;;8.35;35.17
73671;BME280;61968;48.178;11.566;2023-03-25T13:19:08;95194.94;;;8.46;34.90
73671;BME280;61968;48.178;11.566;2023-03-25T13:21:38;95181.31;;;8.25;35.94